createdAt,value
2023-05-12T00:04:06.792Z,5.88
2023-05-12T00:09:09.673Z,5.60
2023-05-12T00:14:11.051Z,5.63
2023-05-12T00:19:12.470Z,5.10
2023-05-12T00:24:14.838Z,4.80
2023-05-12T00:29:16.198Z,4.43
2023-05-12T00:34:17.583Z,4.35
2023-05-12T00:39:18.942Z,3.78
2023-05-12T00:44:20.295Z,4.80
2023-05-12T00:49:21.997Z,4.65
2023-05-12T00:54:23.569Z,4.43
2023-05-12T00:59:24.988Z,2.50
2023-05-12T01:04:26.446Z,3.28
2023-05-12T01:09:27.917Z,2.95
2023-05-12T01:14:29.245Z,2.75
2023-05-12T01:19:53.761Z,3.08
2023-05-12T01:30:01.619Z,3.33
2023-05-12T01:35:03.065Z,3.22
2023-05-12T01:40:05.048Z,3.10
2023-05-12T01:45:07.411Z,2.95
2023-05-12T01:50:09.317Z,3.05
2023-05-12T01:55:10.743Z,2.70
2023-05-12T02:00:12.863Z,3.63
2023-05-12T02:05:14.219Z,5.32
2023-05-12T02:10:15.833Z,7.00
2023-05-12T02:15:17.248Z,6.68
2023-05-12T02:20:18.893Z,4.55
2023-05-12T02:25:21.215Z,1.90
2023-05-12T02:30:22.818Z,1.80
2023-05-12T02:35:24.204Z,1.20
2023-05-12T02:40:25.537Z,0.60
2023-05-12T02:45:27.087Z,0.63
2023-05-12T02:50:28.411Z,0.68
2023-05-12T02:55:30.146Z,0.70
2023-05-12T03:00:31.543Z,0.80
2023-05-12T03:05:32.821Z,0.65
2023-05-12T03:10:34.374Z,1.08
2023-05-12T03:15:36.629Z,1.00
2023-05-12T03:20:38.008Z,1.02
2023-05-12T03:25:39.340Z,1.70
2023-05-12T03:30:40.757Z,1.30
2023-05-12T03:35:42.429Z,1.52
2023-05-12T03:40:43.796Z,1.80
2023-05-12T03:45:45.100Z,1.67
2023-05-12T03:50:48.424Z,1.80
2023-05-12T03:55:49.793Z,1.83
2023-05-12T04:00:51.169Z,2.10
2023-05-12T04:05:58.263Z,1.98
2023-05-12T04:11:01.231Z,1.90
2023-05-12T04:16:02.579Z,2.40
2023-05-12T04:21:04.222Z,2.83
2023-05-12T04:26:05.710Z,3.13
2023-05-12T04:31:07.001Z,3.80
2023-05-12T04:36:08.692Z,3.30
2023-05-12T04:41:09.986Z,3.20
2023-05-12T04:46:11.310Z,3.40
2023-05-12T04:51:12.632Z,3.50
2023-05-12T04:56:14.086Z,3.17
2023-05-12T05:01:16.000Z,3.60
2023-05-12T05:06:17.641Z,3.85
2023-05-12T05:11:19.063Z,3.00
2023-05-12T05:16:21.137Z,3.95
2023-05-12T05:21:22.616Z,2.78
2023-05-12T05:26:25.586Z,3.55
2023-05-12T05:31:28.779Z,3.40
2023-05-12T05:36:31.549Z,4.17
2023-05-12T05:41:33.162Z,3.53
2023-05-12T05:46:34.521Z,3.78
2023-05-12T05:51:35.910Z,3.40
2023-05-12T05:56:37.364Z,3.80
2023-05-12T06:01:39.261Z,4.07
2023-05-12T06:06:41.097Z,3.28
2023-05-12T06:11:42.380Z,3.05
2023-05-12T06:16:43.725Z,3.22
2023-05-12T06:21:45.131Z,4.22
2023-05-12T06:26:46.652Z,3.92
2023-05-12T06:31:48.350Z,3.70
2023-05-12T06:36:49.695Z,3.50
2023-05-12T06:41:51.092Z,3.17
2023-05-12T06:46:52.816Z,3.50
2023-05-12T06:51:54.207Z,3.50
2023-05-12T06:56:55.567Z,2.95
2023-05-12T07:01:56.923Z,3.78
2023-05-12T07:06:58.237Z,3.67
2023-05-12T07:12:00.666Z,3.28
2023-05-12T07:17:01.962Z,2.92
2023-05-12T07:22:03.544Z,3.65
2023-05-12T07:27:05.812Z,2.55
2023-05-12T07:32:07.276Z,3.28
2023-05-12T07:37:08.550Z,3.10
2023-05-12T07:42:10.979Z,3.60
2023-05-12T07:47:12.643Z,3.15
2023-05-12T07:52:14.067Z,3.30
2023-05-12T07:57:15.418Z,3.47
2023-05-12T08:02:17.419Z,3.28
2023-05-12T08:07:18.908Z,3.03
2023-05-12T08:12:20.313Z,6.60
2023-05-12T08:17:21.711Z,3.30
2023-05-12T08:22:23.150Z,3.58
2023-05-12T08:27:24.488Z,3.15
2023-05-12T08:32:25.841Z,3.63
2023-05-12T08:37:27.666Z,2.97
2023-05-12T08:42:42.506Z,2.97
2023-05-12T08:47:45.993Z,2.88
2023-05-12T08:52:48.473Z,3.05
2023-05-12T08:57:50.237Z,2.92
2023-05-12T09:02:54.669Z,3.20
2023-05-12T09:07:57.766Z,3.00
2023-05-12T09:13:03.565Z,3.28
2023-05-12T09:18:05.167Z,3.47
2023-05-12T09:23:20.877Z,3.50
2023-05-12T09:28:22.274Z,3.80
2023-05-12T09:33:25.410Z,2.72
2023-05-12T09:38:26.771Z,2.97
2023-05-12T09:43:28.090Z,3.00
2023-05-12T09:48:30.054Z,2.85
2023-05-12T09:53:31.520Z,2.72
2023-05-12T09:58:33.922Z,2.50
2023-05-12T10:03:37.460Z,2.60
2023-05-12T10:08:46.490Z,2.63
2023-05-12T10:13:48.473Z,2.67
2023-05-12T10:18:50.866Z,3.00
2023-05-12T10:23:54.078Z,2.80
2023-05-12T10:28:55.592Z,3.27
2023-05-12T10:33:58.782Z,2.47
2023-05-12T10:39:06.566Z,2.40
2023-05-12T10:44:10.150Z,2.67
2023-05-12T10:49:13.042Z,2.50
2023-05-12T10:54:25.968Z,2.70
2023-05-12T10:59:28.055Z,2.80
2023-05-12T11:04:47.130Z,3.45
2023-05-12T11:09:58.432Z,3.08
2023-05-12T11:15:02.133Z,3.83
2023-05-12T11:20:03.681Z,3.15
2023-05-12T11:25:12.254Z,3.70
2023-05-12T11:30:13.801Z,3.75
2023-05-12T11:35:17.880Z,3.72
2023-05-12T11:40:21.665Z,3.00
2023-05-12T11:45:29.197Z,2.80
2023-05-12T11:50:30.996Z,1.50
2023-05-12T11:55:34.062Z,1.20
2023-05-12T12:00:35.633Z,1.33
2023-05-12T12:05:37.666Z,1.73
2023-05-12T12:10:43.146Z,2.17
2023-05-12T12:15:44.994Z,1.42
2023-05-12T12:20:47.045Z,1.98
2023-05-12T12:25:48.397Z,2.03
2023-05-12T12:30:50.904Z,2.10
2023-05-12T12:35:52.280Z,1.90
2023-05-12T12:40:53.659Z,1.92
2023-05-12T12:45:55.028Z,1.88
2023-05-12T12:50:56.442Z,1.65
2023-05-12T12:55:57.862Z,1.58
2023-05-12T13:00:59.272Z,1.38
2023-05-12T13:06:00.708Z,1.35
2023-05-12T13:11:02.047Z,1.90
2023-05-12T13:16:04.418Z,1.45
2023-05-12T13:21:06.072Z,1.40
2023-05-12T13:26:07.410Z,1.25
2023-05-12T13:31:08.927Z,1.73
2023-05-12T13:36:10.285Z,1.05
2023-05-12T13:41:12.083Z,1.20
2023-05-12T13:46:13.400Z,1.48
2023-05-12T13:51:14.976Z,1.58
2023-05-12T13:56:18.900Z,1.80
2023-05-12T14:01:20.984Z,1.80
2023-05-12T14:06:22.538Z,1.52
2023-05-12T14:11:23.874Z,1.45
2023-05-12T14:16:25.296Z,1.58
2023-05-12T14:21:26.956Z,1.80
2023-05-12T14:26:28.339Z,2.17
2023-05-12T14:31:29.708Z,1.45
2023-05-12T14:36:31.094Z,1.42
2023-05-12T14:41:32.440Z,1.90
2023-05-12T14:46:34.201Z,1.40
2023-05-12T14:51:35.555Z,1.58
2023-05-12T14:56:36.925Z,1.10
2023-05-12T15:01:38.447Z,0.90
2023-05-12T15:06:40.054Z,0.82
2023-05-12T15:11:45.181Z,1.20
2023-05-12T15:16:46.809Z,1.38
2023-05-12T15:21:48.582Z,1.50
2023-05-12T15:26:49.874Z,1.05
2023-05-12T15:31:51.724Z,1.23
2023-05-12T15:36:53.124Z,1.42
2023-05-12T15:41:54.605Z,1.30
2023-05-12T15:46:56.054Z,1.25
2023-05-12T15:51:57.737Z,1.40
2023-05-12T15:56:58.967Z,1.25
2023-05-12T16:02:00.638Z,1.17
2023-05-12T16:07:02.258Z,1.50
2023-05-12T16:12:05.514Z,1.33
2023-05-12T16:17:08.667Z,1.40
2023-05-12T16:22:10.263Z,1.70
2023-05-12T16:27:11.699Z,1.33
2023-05-12T16:32:13.102Z,1.60
2023-05-12T16:37:14.488Z,1.42
2023-05-12T16:42:15.918Z,1.23
2023-05-12T16:47:17.395Z,1.83
2023-05-12T16:52:19.607Z,1.23
2023-05-12T16:57:21.060Z,1.55
2023-05-12T17:02:22.466Z,1.42
2023-05-12T17:07:24.188Z,1.48
2023-05-12T17:12:25.502Z,1.45
2023-05-12T17:17:26.971Z,1.30
2023-05-12T17:22:28.421Z,1.58
2023-05-12T17:27:30.368Z,1.77
2023-05-12T17:32:32.043Z,1.98
2023-05-12T17:37:34.328Z,1.65
2023-05-12T17:42:35.667Z,1.50
2023-05-12T17:47:37.060Z,1.45
2023-05-12T17:52:38.856Z,1.35
2023-05-12T17:57:40.144Z,1.35
2023-05-12T18:02:41.810Z,2.53
2023-05-12T18:07:43.158Z,1.90
2023-05-12T18:12:44.548Z,1.58
2023-05-12T18:17:46.389Z,1.42
2023-05-12T18:22:48.274Z,1.67
2023-05-12T18:27:49.737Z,1.70
2023-05-12T18:32:51.165Z,1.95
2023-05-12T18:37:53.123Z,2.28
2023-05-12T18:42:54.421Z,2.38
2023-05-12T18:47:55.952Z,2.67
2023-05-12T18:52:57.403Z,2.78
2023-05-12T18:57:58.706Z,2.63
2023-05-12T19:03:00.289Z,2.55
2023-05-12T19:08:02.241Z,3.08
2023-05-12T19:13:03.822Z,3.33
2023-05-12T19:18:05.315Z,2.63
2023-05-12T19:23:07.388Z,2.63
2023-05-12T19:28:10.680Z,3.60
2023-05-12T19:33:14.180Z,3.27
2023-05-12T19:38:18.447Z,3.42
2023-05-12T19:43:19.821Z,2.63
2023-05-12T19:48:21.457Z,2.88
2023-05-12T19:53:23.015Z,3.00
2023-05-12T19:58:24.293Z,3.58
2023-05-12T20:03:27.049Z,4.47
2023-05-12T20:08:28.376Z,4.10
2023-05-12T20:13:31.018Z,3.88
2023-05-12T20:18:32.927Z,4.05
2023-05-12T20:23:34.292Z,3.60
2023-05-12T20:28:36.580Z,3.78
2023-05-12T20:33:37.939Z,4.18
2023-05-12T20:38:39.844Z,4.00
2023-05-12T20:43:41.407Z,3.65
2023-05-12T20:48:43.314Z,3.72
2023-05-12T20:53:44.751Z,3.60
2023-05-12T20:58:46.157Z,3.42
2023-05-12T21:03:47.632Z,3.25
2023-05-12T21:08:49.110Z,4.50
2023-05-12T21:13:50.712Z,3.63
2023-05-12T21:18:52.257Z,3.65
2023-05-12T21:23:54.017Z,3.13
2023-05-12T21:28:55.661Z,3.40
2023-05-12T21:33:57.132Z,3.40
2023-05-12T21:38:59.713Z,3.38
2023-05-12T21:44:01.204Z,2.97
2023-05-12T21:49:02.792Z,3.35
2023-05-12T21:54:04.267Z,3.25
2023-05-12T21:59:05.668Z,3.38
2023-05-12T22:04:07.296Z,3.33
2023-05-12T22:09:10.085Z,3.35
2023-05-12T22:14:11.766Z,5.82
2023-05-12T22:19:13.457Z,3.35
2023-05-12T22:24:14.933Z,3.83
2023-05-12T22:29:16.261Z,3.25
2023-05-12T22:34:17.798Z,3.90
2023-05-12T22:39:19.801Z,3.80
2023-05-12T22:44:21.184Z,3.70
2023-05-12T22:49:22.698Z,3.47
2023-05-12T22:54:25.872Z,3.45
2023-05-12T22:59:27.601Z,3.55
2023-05-12T23:04:29.012Z,3.60
2023-05-12T23:09:32.024Z,3.35
2023-05-12T23:14:33.442Z,3.58
2023-05-12T23:19:35.604Z,3.85
2023-05-12T23:24:37.600Z,3.58
2023-05-12T23:29:39.030Z,3.42
2023-05-12T23:34:40.813Z,4.10
2023-05-12T23:39:42.201Z,3.08
2023-05-12T23:44:43.839Z,3.25
2023-05-12T23:49:45.335Z,3.35
2023-05-12T23:54:46.819Z,3.25
2023-05-12T23:59:48.259Z,3.70
